Terminal Aerodrome Forecast
Issued by NWS

Home | Current Version | Previous Version | Text Only | Print | Product List | Glossary On
Versions: 1 2 3 4 5 6 7 8 9 10 11 12 13 14 15 16 17 18 19 20 21 22 23 24
000
FTUS45 KGJT 172341
TAFDRO
TAF
KDRO 172341Z 1800/1824 22005KT 4SM -SN BR FEW007 OVC015
     FM181100 19002KT 6SM BR SCT015 BKN050
     FM182100 21005KT P6SM FEW050 SCT250=

USA.gov is the U.S. government's official web portal to all federal, state and local government web resources and services.